»·PEaware :: AAL225 KBOI-KLAS

AAL225 :: KBOI-KLAS

FLIGHT INFORMATION

Flight Status: Arrived
Operator:
American Airlines
More flights by this operator :: More flights under this callsign
Pilot: Michael R. (16974)
Aircraft: BOEING 737-800
(B738)
More flights by this aircraft type
Origin: KBOI Boise Air Terminal/Gowen
United States
Destination: KLAS McCarran Intl
United States
More flights between these airports :: More routes between these airports
Route: +MPIRE SITEE2
File this flight plan on PilotEdge
Remarks:
Altitude:
(Current/Filed)
37,000ft
Speed:
(Current/Filed)
461kts
Departed: 16-May-18 09:28 PM
Arrived: 16-May-18 11:00 PM
Distance/Time
Traveled:
452nm/1:32
Distance/Time
To Go:
Arrived

Flight Plot

Page will automatically refresh every two minutes.

Flight plan parsing failed; only flown route is shown


Map Options




Map Legend


Flown Route
Filed Route
Departure Airport
Arrival Airport
Navaid (VOR, NDB)
Fix

Horizontal Profiles

Position Reports

Time Latitude Longitude Heading Altitude Ground
Speed
16-May-18 20:57 43.567053 -116.217998 292 2855ft 0kts
16-May-18 20:58 43.567053 -116.217998 292 2855ft 0kts
16-May-18 20:59 43.567053 -116.217998 292 2855ft 0kts
16-May-18 21:00 43.567053 -116.217998 292 2855ft 0kts
16-May-18 21:01 43.567053 -116.217998 292 2855ft 0kts
16-May-18 21:02 43.567053 -116.217998 292 2855ft 0kts
16-May-18 21:03 43.567053 -116.217998 292 2855ft 0kts
16-May-18 21:04 43.567053 -116.217998 292 2855ft 0kts
16-May-18 21:05 43.567053 -116.217998 292 2855ft 0kts
16-May-18 21:06 43.567053 -116.217998 292 2855ft 0kts
16-May-18 21:07 43.567053 -116.217998 292 2855ft 0kts
16-May-18 21:08 43.567053 -116.217998 292 2855ft 0kts
16-May-18 21:09 43.567053 -116.217998 292 2855ft 0kts
16-May-18 21:10 43.567053 -116.217998 292 2855ft 0kts
16-May-18 21:11 43.567053 -116.217998 292 2855ft 0kts
16-May-18 21:12 43.567053 -116.217998 292 2855ft 0kts
16-May-18 21:13 43.567053 -116.217998 292 2855ft 0kts
16-May-18 21:14 43.567053 -116.217998 292 2855ft 0kts
16-May-18 21:15 43.567053 -116.217998 292 2855ft 0kts
16-May-18 21:16 43.567053 -116.217998 292 2855ft 0kts
16-May-18 21:17 43.567053 -116.217998 292 2855ft 0kts
16-May-18 21:18 43.566968 -116.217335 239 2855ft 2kts
16-May-18 21:19 43.567308 -116.217136 172 2856ft 0kts
16-May-18 21:20 43.567308 -116.217136 172 2856ft 0kts
16-May-18 21:21 43.567153 -116.217109 172 2856ft 5kts
16-May-18 21:22 43.565307 -116.216885 174 2858ft 0kts
16-May-18 21:23 43.564220 -116.215637 115 2860ft 9kts
16-May-18 21:24 43.561898 -116.208794 115 2867ft 28kts
16-May-18 21:25 43.559546 -116.202199 145 2872ft 5kts
16-May-18 21:26 43.559450 -116.202128 156 2872ft 0kts
16-May-18 21:27 43.559428 -116.202116 159 2872ft 1kts
16-May-18 21:28 43.559283 -116.204832 295 2870ft 50kts
16-May-18 21:29 43.575454 -116.262001 290 3910ft 215kts
16-May-18 21:30 43.598860 -116.349724 293 6477ft 273kts
16-May-18 21:31 43.630509 -116.446875 295 9907ft 286kts
16-May-18 21:32 43.635809 -116.552368 236 12272ft 325kts
16-May-18 21:33 43.557268 -116.568110 136 15103ft 343kts
16-May-18 21:34 43.522714 -116.444946 106 16172ft 356kts
16-May-18 21:35 43.498020 -116.327104 106 18725ft 362kts
16-May-18 21:36 43.469507 -116.191864 106 21068ft 376kts
16-May-18 21:37 43.439722 -116.051564 106 23162ft 388kts
16-May-18 21:38 43.408933 -115.907553 106 25009ft 400kts
16-May-18 21:39 43.377115 -115.759778 106 26697ft 410kts
16-May-18 21:40 43.349747 -115.633519 106 27985ft 419kts
16-May-18 21:41 43.315963 -115.478730 106 29476ft 427kts
16-May-18 21:42 43.252156 -115.319572 147 31363ft 422kts
16-May-18 21:43 43.144471 -115.271454 166 32804ft 418kts
16-May-18 21:44 43.032304 -115.232899 166 34141ft 415kts
16-May-18 21:45 42.919881 -115.194489 164 35188ft 416kts
16-May-18 21:46 42.815055 -115.158779 164 36640ft 401kts
16-May-18 21:47 42.706172 -115.121761 164 37018ft 414kts
16-May-18 21:48 42.591635 -115.082956 165 37003ft 435kts
16-May-18 21:49 42.493958 -115.050020 165 37000ft 433kts
16-May-18 21:50 42.377352 -115.010776 166 37351ft 434kts
16-May-18 21:51 42.260481 -114.971630 167 38157ft 435kts
16-May-18 21:52 42.143387 -114.932551 167 38842ft 435kts
16-May-18 21:53 42.026109 -114.893566 167 38995ft 433kts
16-May-18 21:54 41.909326 -114.854886 167 38995ft 435kts
16-May-18 21:55 41.799629 -114.818719 167 38996ft 434kts
16-May-18 21:56 41.682800 -114.780314 167 38999ft 433kts
16-May-18 21:57 41.566126 -114.742089 167 38994ft 434kts
16-May-18 21:58 41.449027 -114.703871 167 38939ft 434kts
16-May-18 21:59 41.332344 -114.665943 167 38927ft 434kts
16-May-18 22:00 41.215634 -114.628127 167 38926ft 434kts
16-May-18 22:01 41.098399 -114.590270 167 38930ft 433kts
16-May-18 22:02 40.984316 -114.553435 170 38926ft 418kts
16-May-18 22:03 40.882054 -114.520583 170 38958ft 418kts
16-May-18 22:04 40.770925 -114.485053 170 38958ft 417kts
16-May-18 22:05 40.658303 -114.449156 170 38956ft 417kts
16-May-18 22:06 40.545968 -114.413486 170 38956ft 418kts
16-May-18 22:07 40.433480 -114.377858 170 38958ft 417kts
16-May-18 22:08 40.326764 -114.344197 171 38953ft 417kts
16-May-18 22:09 40.215260 -114.309261 171 38950ft 417kts
16-May-18 22:10 40.102834 -114.274144 171 38949ft 417kts
16-May-18 22:11 39.990116 -114.239070 171 38950ft 417kts
16-May-18 22:12 39.883538 -114.206011 171 38995ft 417kts
16-May-18 22:13 39.773550 -114.172008 171 39015ft 417kts
16-May-18 22:14 39.660901 -114.137278 171 39029ft 417kts
16-May-18 22:15 39.548400 -114.102711 171 39027ft 417kts
16-May-18 22:16 39.435695 -114.068204 171 39027ft 417kts
16-May-18 22:17 39.323474 -114.033923 171 39025ft 417kts
16-May-18 22:18 39.210805 -113.999638 171 39024ft 417kts
16-May-18 22:19 39.098089 -113.965430 171 39021ft 417kts
16-May-18 22:20 38.985627 -113.931372 172 39012ft 415kts
16-May-18 22:21 38.880978 -113.899680 174 39019ft 409kts
16-May-18 22:22 38.771971 -113.866897 174 39012ft 409kts
16-May-18 22:23 38.661542 -113.833806 174 39004ft 409kts
16-May-18 22:24 38.550894 -113.800751 174 38994ft 409kts
16-May-18 22:25 38.440386 -113.767841 174 38991ft 409kts
16-May-18 22:26 38.329884 -113.735037 174 38992ft 409kts
16-May-18 22:27 38.219416 -113.702348 174 38992ft 409kts
16-May-18 22:28 38.108745 -113.669702 174 39023ft 409kts
16-May-18 22:29 37.998232 -113.637211 174 39034ft 409kts
16-May-18 22:30 37.891952 -113.606070 174 39036ft 409kts
16-May-18 22:31 37.784105 -113.574582 174 39045ft 409kts
16-May-18 22:32 37.673694 -113.542478 174 39038ft 409kts
16-May-18 22:33 37.563085 -113.514390 188 39023ft 396kts
16-May-18 22:34 37.463584 -113.559284 208 38333ft 376kts
16-May-18 22:35 37.369122 -113.615698 208 37379ft 378kts
16-May-18 22:36 37.274844 -113.671902 208 36054ft 384kts
16-May-18 22:37 37.180435 -113.728005 208 33613ft 378kts
16-May-18 22:38 37.083656 -113.785472 208 31155ft 387kts
16-May-18 22:39 36.988655 -113.841617 208 28816ft 375kts
16-May-18 22:40 36.899715 -113.894093 208 26671ft 366kts
16-May-18 22:41 36.812349 -113.945542 208 24615ft 357kts
16-May-18 22:42 36.723775 -113.997585 207 22558ft 349kts
16-May-18 22:43 36.637022 -114.048443 207 20578ft 342kts
16-May-18 22:44 36.559938 -114.110832 234 18678ft 337kts
16-May-18 22:45 36.510674 -114.208130 236 16929ft 330kts
16-May-18 22:46 36.462126 -114.304003 236 15110ft 325kts
16-May-18 22:47 36.415408 -114.395619 236 13214ft 290kts
16-May-18 22:48 36.372992 -114.478412 236 11743ft 277kts
16-May-18 22:49 36.331388 -114.559453 236 10796ft 279kts
16-May-18 22:50 36.286043 -114.634490 209 9914ft 264kts
16-May-18 22:51 36.221539 -114.664321 200 9318ft 263kts
16-May-18 22:52 36.152856 -114.693847 200 8708ft 262kts
16-May-18 22:53 36.087209 -114.729170 228 8020ft 253kts
16-May-18 22:54 36.073364 -114.808644 267 7217ft 243kts
16-May-18 22:55 36.073618 -114.890084 267 5868ft 221kts
16-May-18 22:56 36.073719 -114.960877 267 4719ft 190kts
16-May-18 22:57 36.073729 -115.021615 267 3708ft 165kts
16-May-18 22:58 36.073705 -115.074247 267 2917ft 146kts
16-May-18 22:59 36.073662 -115.123918 268 2140ft 145kts
16-May-18 23:00 36.074578 -115.150158 297 2120ft 21kts
16-May-18 23:01 36.078006 -115.152887 334 2125ft 18kts
16-May-18 23:02 36.081007 -115.147679 62 2099ft 0kts
16-May-18 23:03 36.081007 -115.147679 62 2099ft 0kts
16-May-18 23:04 36.081007 -115.147679 62 2099ft 0kts

Navigation Log

Ident Type
Flight plan parsing failed, navigation log unavailable